Time;durP1;ratioP1;P1;durP2;ratioP2;P2;SDS_P1;SDS_P2;PMS_P1;PMS_P2;Temp;Humidity;BMP_temperature;BMP_pressure;BME280_temperature;BME280_humidity;BME280_pressure;Samples;Min_cycle;Max_cycle;Signal;HPM_P1;HPM_P2
2021/05/23 00:00:13;;;;;;;2.73;1.10;;;14.60;68.90;;;;;;4998247;28;20466;-89
2021/05/23 00:02:40;;;;;;;3.40;1.20;;;14.70;67.70;;;;;;4998163;28;20527;-89
2021/05/23 00:05:13;;;;;;;3.47;1.73;;;14.60;68.40;;;;;;5016650;28;20535;-89
2021/05/23 00:07:53;;;;;;;4.07;1.20;;;14.60;69.60;;;;;;5005416;28;20529;-88
2021/05/23 00:10:20;;;;;;;3.17;1.57;;;14.60;70.40;;;;;;5005168;28;21024;-89
2021/05/23 00:12:47;;;;;;;1.83;1.27;;;14.50;71.20;;;;;;5001635;28;20882;-88
2021/05/23 00:15:16;;;;;;;2.40;1.30;;;14.50;71.90;;;;;;4998331;28;20487;-88
2021/05/23 00:17:44;;;;;;;3.27;1.50;;;14.40;72.10;;;;;;4997503;28;20502;-88
2021/05/23 00:20:12;;;;;;;6.03;1.57;;;14.40;72.20;;;;;;4997723;28;20439;-89
2021/05/23 00:22:38;;;;;;;3.43;1.30;;;14.30;72.50;;;;;;5012681;28;20482;-88
2021/05/23 00:25:08;;;;;;;2.03;1.20;;;14.30;73.60;;;;;;5018300;28;20498;-89
2021/05/23 00:27:35;;;;;;;2.73;1.70;;;14.20;73.50;;;;;;5007008;28;20480;-89
2021/05/23 00:30:01;;;;;;;2.60;1.53;;;14.20;72.70;;;;;;5016865;28;20445;-88
2021/05/23 00:32:27;;;;;;;2.00;1.53;;;14.20;72.90;;;;;;5011998;28;20466;-89
2021/05/23 00:34:54;;;;;;;3.30;1.73;;;14.20;73.40;;;;;;4998655;28;20564;-88
2021/05/23 00:37:26;;;;;;;1.47;1.07;;;14.10;74.00;;;;;;5001202;28;20467;-89
2021/05/23 00:39:52;;;;;;;3.30;1.40;;;14.10;74.20;;;;;;4999742;28;20475;-89
2021/05/23 00:42:19;;;;;;;2.27;1.30;;;14.10;73.90;;;;;;4998549;28;20462;-89
2021/05/23 00:44:46;;;;;;;1.93;1.33;;;14.10;74.10;;;;;;4998316;28;20445;-89
2021/05/23 00:47:12;;;;;;;1.30;1.10;;;14.10;72.20;;;;;;4998945;28;20537;-88
2021/05/23 00:49:38;;;;;;;3.83;1.30;;;14.10;72.30;;;;;;4996544;28;20433;-88
2021/05/23 00:52:05;;;;;;;1.63;1.20;;;14.10;72.70;;;;;;4996748;28;20458;-88
2021/05/23 00:54:32;;;;;;;1.60;1.20;;;14.10;73.00;;;;;;4997339;28;20613;-88
2021/05/23 00:56:58;;;;;;;1.87;1.27;;;14.00;73.20;;;;;;4996077;28;20476;-88
2021/05/23 00:59:25;;;;;;;1.77;1.10;;;14.00;73.60;;;;;;4996207;28;20476;-89
2021/05/23 01:02:31;;;;;;;4.37;1.20;;;14.00;73.20;;;;;;4999548;28;20460;-88
2021/05/23 01:04:57;;;;;;;1.10;0.87;;;14.00;73.60;;;;;;5000937;28;20430;-89
2021/05/23 01:07:24;;;;;;;4.43;1.30;;;14.00;74.10;;;;;;4999760;28;20486;-89
2021/05/23 01:09:51;;;;;;;1.87;1.63;;;14.00;74.00;;;;;;5002765;28;20793;-88
2021/05/23 01:12:47;;;;;;;2.80;0.97;;;14.00;74.30;;;;;;4998391;28;20445;-87
2021/05/23 01:15:14;;;;;;;1.30;1.20;;;14.00;74.40;;;;;;5005272;28;20481;-88
2021/05/23 01:17:47;;;;;;;1.70;1.40;;;13.90;74.70;;;;;;4999352;28;20458;-89
2021/05/23 01:20:32;;;;;;;2.40;1.07;;;13.90;75.40;;;;;;5001159;28;20497;-88
2021/05/23 01:23:24;;;;;;;3.00;1.40;;;13.90;75.70;;;;;;4997329;28;21015;-89
2021/05/23 01:25:56;;;;;;;1.37;1.10;;;13.90;75.90;;;;;;4996952;28;20418;-88
2021/05/23 01:28:23;;;;;;;2.60;1.20;;;13.80;76.20;;;;;;4997802;28;20539;-88
2021/05/23 01:30:51;;;;;;;4.10;1.50;;;13.80;76.50;;;;;;5007612;28;20488;-88
2021/05/23 01:33:21;;;;;;;1.23;1.13;;;13.80;77.10;;;;;;5005086;28;20449;-88
2021/05/23 01:35:54;;;;;;;1.33;1.00;;;13.70;77.10;;;;;;5002006;28;20458;-88
2021/05/23 01:38:22;;;;;;;2.10;1.33;;;13.80;77.50;;;;;;5000388;28;20455;-87
2021/05/23 01:40:50;;;;;;;1.60;1.20;;;13.80;77.50;;;;;;4997529;28;20458;-88
2021/05/23 01:43:19;;;;;;;1.30;0.90;;;13.80;78.10;;;;;;5003117;28;20454;-88
2021/05/23 01:45:45;;;;;;;2.53;1.03;;;13.80;78.60;;;;;;5018909;28;20454;-87
2021/05/23 01:48:11;;;;;;;1.50;1.03;;;13.80;78.60;;;;;;5019238;28;20464;-86
2021/05/23 01:50:38;;;;;;;2.83;1.10;;;13.80;78.80;;;;;;5018542;28;20477;-87
2021/05/23 01:53:06;;;;;;;1.53;1.07;;;13.70;79.20;;;;;;5018118;28;20451;-88
2021/05/23 01:55:33;;;;;;;3.40;1.07;;;13.70;79.50;;;;;;4998521;28;20451;-88
2021/05/23 01:58:00;;;;;;;1.17;1.03;;;13.70;80.00;;;;;;4996310;28;20474;-88
2021/05/23 02:00:30;;;;;;;2.30;1.10;;;13.70;80.80;;;;;;4995331;28;20432;-88
2021/05/23 02:02:58;;;;;;;3.10;1.10;;;13.70;80.70;;;;;;4995321;28;20509;-88
2021/05/23 02:05:25;;;;;;;1.00;0.87;;;13.60;80.60;;;;;;4994971;28;20498;-88
2021/05/23 02:07:51;;;;;;;1.97;1.20;;;13.60;81.20;;;;;;5002650;28;20459;-87
2021/05/23 02:10:20;;;;;;;3.60;1.13;;;13.60;81.40;;;;;;5004721;28;20453;-87
2021/05/23 02:12:46;;;;;;;2.40;1.77;;;13.50;81.40;;;;;;4998970;28;20480;-88
2021/05/23 02:15:15;;;;;;;1.40;0.93;;;13.50;81.70;;;;;;4994746;28;20605;-88
2021/05/23 02:17:44;;;;;;;2.60;1.17;;;13.50;82.10;;;;;;4995779;28;20479;-87
2021/05/23 02:20:13;;;;;;;1.00;0.90;;;13.50;82.30;;;;;;4995582;28;20453;-88
2021/05/23 02:22:40;;;;;;;1.63;1.27;;;13.50;82.50;;;;;;4995421;28;20459;-87
2021/05/23 02:25:08;;;;;;;3.43;0.97;;;13.50;82.90;;;;;;4994806;28;20457;-88
2021/05/23 02:27:39;;;;;;;2.60;1.00;;;13.50;83.50;;;;;;4994891;28;20465;-88
2021/05/23 02:30:08;;;;;;;1.67;0.90;;;13.50;85.70;;;;;;4996778;28;20580;-87
2021/05/23 02:32:34;;;;;;;1.87;1.00;;;13.50;87.00;;;;;;4997231;28;20983;-87
2021/05/23 02:35:01;;;;;;;1.77;1.50;;;13.50;89.80;;;;;;4997530;28;20513;-88
2021/05/23 02:37:28;;;;;;;1.80;1.10;;;13.30;90.80;;;;;;4996252;28;20457;-87
2021/05/23 02:39:54;;;;;;;2.17;1.27;;;13.00;93.60;;;;;;5002976;28;20444;-88
2021/05/23 02:42:20;;;;;;;1.90;1.20;;;12.70;96.20;;;;;;4995341;28;20471;-87
2021/05/23 02:44:47;;;;;;;1.83;0.83;;;12.50;98.30;;;;;;4995188;28;20820;-87
2021/05/23 02:47:13;;;;;;;2.30;1.43;;;12.30;99.90;;;;;;4997576;28;20476;-88
2021/05/23 02:49:43;;;;;;;1.93;1.23;;;12.00;99.90;;;;;;4997394;28;20553;-87
2021/05/23 02:52:11;;;;;;;2.70;0.80;;;11.80;99.90;;;;;;5000370;28;20439;-88
2021/05/23 02:54:39;;;;;;;1.00;0.87;;;11.70;99.90;;;;;;5006601;28;20471;-87
2021/05/23 02:57:06;;;;;;;0.90;0.60;;;11.50;99.90;;;;;;4999600;28;20606;-87
2021/05/23 02:59:35;;;;;;;1.27;0.80;;;11.40;99.90;;;;;;4996232;28;20554;-88
2021/05/23 03:02:01;;;;;;;2.40;1.03;;;11.30;99.90;;;;;;4996360;28;20476;-89
2021/05/23 03:04:28;;;;;;;1.80;0.80;;;11.20;99.90;;;;;;4996512;28;20447;-88
2021/05/23 03:06:58;;;;;;;2.77;0.70;;;11.10;99.90;;;;;;5011330;28;20452;-88
2021/05/23 03:09:26;;;;;;;1.40;0.60;;;11.00;99.90;;;;;;5018732;28;20435;-87
2021/05/23 03:11:52;;;;;;;1.47;0.90;;;11.00;99.90;;;;;;5018443;28;20443;-88
2021/05/23 03:14:19;;;;;;;0.87;0.60;;;11.00;99.90;;;;;;5012590;28;20521;-89
2021/05/23 03:16:46;;;;;;;1.27;0.67;;;10.90;99.90;;;;;;5010146;28;20443;-88
2021/05/23 03:19:12;;;;;;;0.87;0.77;;;10.90;99.90;;;;;;5018156;28;20503;-87
2021/05/23 03:21:39;;;;;;;1.10;0.80;;;11.00;99.90;;;;;;5016888;28;20443;-88
2021/05/23 03:24:09;;;;;;;0.80;0.67;;;10.90;99.90;;;;;;5006512;28;20451;-88
2021/05/23 03:26:36;;;;;;;4.63;1.00;;;10.80;99.90;;;;;;5011394;28;20442;-89
2021/05/23 03:29:03;;;;;;;1.43;0.80;;;10.80;99.90;;;;;;4998185;28;20843;-88
2021/05/23 03:31:29;;;;;;;1.43;1.13;;;10.80;99.90;;;;;;4997029;28;20463;-88
2021/05/23 03:33:56;;;;;;;1.37;0.97;;;10.80;99.90;;;;;;4997367;28;20483;-88
2021/05/23 03:36:23;;;;;;;0.90;0.80;;;10.90;99.90;;;;;;5005081;28;20452;-88
2021/05/23 03:38:49;;;;;;;2.27;1.03;;;10.90;99.90;;;;;;5007841;28;20483;-88
2021/05/23 03:41:16;;;;;;;1.30;0.50;;;10.90;99.90;;;;;;4997827;28;20454;-88
2021/05/23 03:43:43;;;;;;;3.83;0.60;;;11.00;99.90;;;;;;4998053;28;20431;-88
2021/05/23 03:46:10;;;;;;;1.37;0.87;;;11.00;99.90;;;;;;5001846;28;20466;-87
2021/05/23 03:48:36;;;;;;;2.07;0.87;;;11.00;99.90;;;;;;5001697;28;20502;-87
2021/05/23 03:51:03;;;;;;;1.37;0.93;;;10.90;99.90;;;;;;5006902;28;20439;-89
2021/05/23 03:53:30;;;;;;;1.00;0.70;;;10.90;99.90;;;;;;5018697;28;20435;-88
2021/05/23 03:55:56;;;;;;;1.10;0.70;;;11.00;99.90;;;;;;5021152;28;20455;-88
2021/05/23 03:58:23;;;;;;;0.70;0.60;;;11.00;99.90;;;;;;5013998;28;20475;-88
2021/05/23 04:00:52;;;;;;;1.03;0.53;;;11.00;99.90;;;;;;5011892;28;20471;-89
2021/05/23 04:03:21;;;;;;;1.17;1.07;;;11.00;99.90;;;;;;5006660;28;20498;-88
2021/05/23 04:05:48;;;;;;;1.70;0.73;;;11.00;99.90;;;;;;5001074;28;20962;-89
2021/05/23 04:08:14;;;;;;;1.00;0.50;;;11.00;99.90;;;;;;5003162;28;20482;-89
2021/05/23 04:10:50;;;;;;;1.00;0.70;;;11.00;99.90;;;;;;5005308;28;20600;-88
2021/05/23 04:13:19;;;;;;;0.77;0.50;;;11.10;99.90;;;;;;4999871;28;20454;-88
2021/05/23 04:15:47;;;;;;;1.10;0.63;;;11.10;99.90;;;;;;5005682;28;20466;-88
2021/05/23 04:18:17;;;;;;;3.53;0.90;;;11.10;99.90;;;;;;4999230;28;20470;-89
2021/05/23 04:20:44;;;;;;;1.67;1.07;;;11.10;99.90;;;;;;5002077;28;20439;-88
2021/05/23 04:23:10;;;;;;;2.00;0.80;;;11.20;99.90;;;;;;5004907;28;20570;-88
2021/05/23 04:25:40;;;;;;;1.37;0.73;;;11.30;99.90;;;;;;4999252;28;20453;-88
2021/05/23 04:28:06;;;;;;;0.97;0.80;;;11.30;99.90;;;;;;4997338;28;20473;-89
2021/05/23 04:30:33;;;;;;;2.40;0.70;;;11.30;99.90;;;;;;4998132;28;20454;-88
2021/05/23 04:33:01;;;;;;;1.10;0.70;;;11.40;99.90;;;;;;4998872;28;20447;-89
2021/05/23 04:35:28;;;;;;;1.60;0.60;;;11.40;99.90;;;;;;4998991;28;20488;-89
2021/05/23 04:37:57;;;;;;;1.60;0.50;;;11.40;99.90;;;;;;5000050;28;20467;-89
2021/05/23 04:40:23;;;;;;;2.43;0.70;;;11.40;99.90;;;;;;5000279;28;20459;-88
2021/05/23 04:42:50;;;;;;;1.23;0.60;;;11.50;99.90;;;;;;5002218;28;20431;-88
2021/05/23 04:45:16;;;;;;;1.73;0.90;;;11.60;99.90;;;;;;5008773;28;20936;-89
2021/05/23 04:47:43;;;;;;;0.80;0.57;;;11.60;99.90;;;;;;5002075;28;20465;-89
2021/05/23 04:50:11;;;;;;;1.90;0.70;;;11.70;99.90;;;;;;4999600;28;20916;-88
2021/05/23 04:52:38;;;;;;;2.50;0.67;;;11.70;99.90;;;;;;4997450;28;20571;-87
2021/05/23 04:55:07;;;;;;;1.27;0.70;;;11.70;99.90;;;;;;4997520;28;20854;-88
2021/05/23 04:57:33;;;;;;;1.80;0.90;;;11.70;99.90;;;;;;4998315;28;20483;-88
2021/05/23 05:00:00;;;;;;;1.00;0.77;;;11.70;99.90;;;;;;5000844;28;20457;-88
2021/05/23 05:02:26;;;;;;;0.97;0.80;;;11.70;99.90;;;;;;4997751;28;20531;-88
2021/05/23 05:04:53;;;;;;;1.60;1.00;;;11.70;99.90;;;;;;4997470;28;20952;-88
2021/05/23 05:07:19;;;;;;;1.50;0.70;;;11.70;99.90;;;;;;4997186;28;20536;-88
2021/05/23 05:09:46;;;;;;;1.53;0.87;;;11.80;99.90;;;;;;4997519;28;20448;-87
2021/05/23 05:12:12;;;;;;;1.00;0.90;;;11.80;99.90;;;;;;4998090;28;20973;-88
2021/05/23 05:14:39;;;;;;;1.97;0.87;;;11.90;99.90;;;;;;4998249;28;20486;-88
2021/05/23 05:17:05;;;;;;;0.80;0.57;;;11.90;99.90;;;;;;4996283;28;20578;-88
2021/05/23 05:19:31;;;;;;;3.53;1.03;;;12.00;99.90;;;;;;5000241;28;20470;-89
2021/05/23 05:21:57;;;;;;;1.50;0.70;;;12.00;99.90;;;;;;5005290;28;20952;-88
2021/05/23 05:24:24;;;;;;;1.47;0.70;;;12.00;99.90;;;;;;5002706;28;20457;-87
2021/05/23 05:26:51;;;;;;;2.60;0.80;;;12.00;99.90;;;;;;5001561;28;20471;-87
2021/05/23 05:29:18;;;;;;;2.00;0.80;;;12.00;99.90;;;;;;5005391;28;20447;-87
2021/05/23 05:31:44;;;;;;;1.90;0.83;;;12.10;99.90;;;;;;5002188;28;20456;-88
2021/05/23 05:34:10;;;;;;;1.43;0.63;;;12.10;99.90;;;;;;5006921;28;20471;-87
2021/05/23 05:36:36;;;;;;;0.77;0.57;;;12.20;99.90;;;;;;4983290;28;20457;-88
2021/05/23 05:39:04;;;;;;;1.47;1.07;;;12.30;99.90;;;;;;4983507;28;20456;-88
2021/05/23 05:41:30;;;;;;;2.50;0.93;;;12.40;99.90;;;;;;4980488;28;20468;-87
2021/05/23 05:43:57;;;;;;;1.77;0.90;;;12.40;99.90;;;;;;4977210;28;20436;-87
2021/05/23 05:46:24;;;;;;;2.60;1.20;;;12.50;99.90;;;;;;4996897;28;20983;-87
2021/05/23 05:48:50;;;;;;;1.27;0.80;;;12.50;99.90;;;;;;5000092;28;20474;-88
2021/05/23 05:51:16;;;;;;;1.93;1.10;;;12.40;99.90;;;;;;5002428;28;20491;-88
2021/05/23 05:53:42;;;;;;;1.80;0.80;;;12.40;99.90;;;;;;5008187;28;20456;-88
2021/05/23 05:56:20;;;;;;;;;;;;;;;;;;;;;
2021/05/23 05:58:47;;;;;;;1.63;0.73;;;12.40;99.90;;;;;;5006272;23;20503;-87
2021/05/23 06:01:14;;;;;;;3.10;1.20;;;12.40;99.90;;;;;;5027287;28;20445;-87
2021/05/23 06:03:43;;;;;;;1.17;0.87;;;12.40;99.90;;;;;;5021635;28;20513;-88
2021/05/23 06:06:09;;;;;;;1.73;0.90;;;12.50;99.90;;;;;;5014187;28;20449;-88
2021/05/23 06:08:35;;;;;;;1.43;1.00;;;12.50;99.90;;;;;;4997738;28;20452;-88
2021/05/23 06:11:02;;;;;;;1.07;0.97;;;12.60;99.90;;;;;;4995114;28;20463;-88
2021/05/23 06:13:28;;;;;;;3.37;1.03;;;12.70;99.90;;;;;;5008774;28;20439;-88
2021/05/23 06:15:54;;;;;;;1.60;0.83;;;12.80;99.90;;;;;;5000988;28;20847;-87
2021/05/23 06:18:25;;;;;;;2.33;1.00;;;12.80;99.90;;;;;;4994467;28;20451;-88
2021/05/23 06:20:51;;;;;;;0.97;0.80;;;12.80;99.90;;;;;;4995914;28;20452;-88
2021/05/23 06:23:18;;;;;;;2.50;0.90;;;12.90;99.90;;;;;;4995901;28;20436;-88
2021/05/23 06:25:44;;;;;;;1.10;0.70;;;12.90;99.90;;;;;;4995215;28;20455;-88
2021/05/23 06:28:10;;;;;;;2.83;1.20;;;13.00;99.90;;;;;;4995071;28;20465;-87
2021/05/23 06:30:36;;;;;;;1.70;0.90;;;13.00;99.90;;;;;;4975081;28;20461;-87
2021/05/23 06:33:03;;;;;;;1.20;0.83;;;13.10;99.90;;;;;;4994333;28;20489;-88
2021/05/23 06:35:30;;;;;;;1.63;0.83;;;13.30;99.90;;;;;;4996008;28;20993;-88
2021/05/23 06:37:56;;;;;;;3.50;1.50;;;13.50;99.90;;;;;;4995527;28;20473;-88
2021/05/23 06:40:23;;;;;;;1.37;0.97;;;13.60;99.90;;;;;;5003000;28;20461;-88
2021/05/23 06:42:49;;;;;;;1.63;0.80;;;13.80;99.50;;;;;;5004141;28;20487;-88
2021/05/23 06:45:15;;;;;;;1.73;1.00;;;13.80;98.90;;;;;;5004457;28;20471;-88
2021/05/23 06:47:41;;;;;;;2.70;0.87;;;13.70;98.70;;;;;;4998109;28;20464;-88
2021/05/23 06:50:10;;;;;;;1.60;0.80;;;13.70;99.10;;;;;;5008174;28;20529;-88
2021/05/23 06:52:40;;;;;;;1.20;1.00;;;14.10;99.60;;;;;;5015133;28;20427;-88
2021/05/23 06:55:07;;;;;;;1.50;0.77;;;14.40;98.30;;;;;;5004775;28;20477;-88
2021/05/23 06:57:33;;;;;;;1.00;0.70;;;14.50;97.00;;;;;;5005352;28;20437;-88
2021/05/23 06:59:59;;;;;;;2.00;0.90;;;14.80;96.20;;;;;;5012067;28;20439;-88
2021/05/23 07:02:26;;;;;;;1.10;0.80;;;15.10;95.60;;;;;;5015014;28;20538;-87
2021/05/23 07:04:52;;;;;;;1.00;0.73;;;15.10;94.70;;;;;;5016946;28;20453;-87
2021/05/23 07:07:18;;;;;;;0.90;0.60;;;14.90;94.00;;;;;;5016144;28;20474;-89
2021/05/23 07:09:45;;;;;;;1.67;0.70;;;14.60;93.60;;;;;;5016002;28;20474;-89
2021/05/23 07:12:12;;;;;;;3.20;0.90;;;15.40;93.90;;;;;;5015005;28;20442;-89
2021/05/23 07:14:38;;;;;;;1.90;0.80;;;16.50;92.50;;;;;;5004080;28;20483;-88
2021/05/23 07:17:04;;;;;;;2.00;0.70;;;16.50;90.50;;;;;;5006619;28;20474;-89
2021/05/23 07:19:30;;;;;;;1.60;0.80;;;16.20;90.70;;;;;;4982738;28;20502;-88
2021/05/23 07:21:57;;;;;;;1.20;0.90;;;15.90;91.20;;;;;;4982288;28;20460;-88
2021/05/23 07:24:23;;;;;;;2.30;1.13;;;15.70;91.40;;;;;;4981021;28;20462;-88
2021/05/23 07:26:50;;;;;;;1.47;0.70;;;16.20;89.60;;;;;;4996086;28;20484;-88
2021/05/23 07:29:19;;;;;;;1.97;0.87;;;16.30;88.50;;;;;;5002560;28;20455;-88
2021/05/23 07:31:46;;;;;;;1.20;0.93;;;16.60;89.60;;;;;;5003865;28;20450;-89
2021/05/23 07:34:12;;;;;;;2.00;0.70;;;17.90;86.10;;;;;;5003354;28;20474;-89
2021/05/23 07:36:39;;;;;;;1.17;0.90;;;18.00;79.80;;;;;;4999326;28;20445;-88
2021/05/23 07:39:05;;;;;;;1.23;0.83;;;17.30;80.20;;;;;;4999189;28;20490;-89
2021/05/23 07:41:31;;;;;;;1.00;0.90;;;16.70;82.80;;;;;;4999366;28;20946;-88
2021/05/23 07:43:59;;;;;;;2.67;1.80;;;15.80;84.10;;;;;;5001073;28;20455;-88
2021/05/23 07:46:25;;;;;;;1.83;0.80;;;15.40;86.80;;;;;;5001035;28;20459;-89
2021/05/23 07:48:52;;;;;;;1.10;1.00;;;15.20;89.40;;;;;;5005687;28;20497;-89
2021/05/23 07:51:18;;;;;;;4.97;1.67;;;14.70;90.00;;;;;;5002177;28;20817;-89
2021/05/23 07:53:45;;;;;;;2.90;0.93;;;14.30;94.50;;;;;;5016712;28;20453;-89
2021/05/23 07:56:18;;;;;;;2.83;0.53;;;13.60;96.00;;;;;;5017268;28;20489;-89
2021/05/23 07:58:49;;;;;;;5.00;0.97;;;12.80;98.20;;;;;;5019622;28;20531;-88
2021/05/23 08:01:20;;;;;;;0.80;0.60;;;12.30;99.90;;;;;;5032937;22;20497;-89
2021/05/23 08:03:46;;;;;;;1.63;1.37;;;12.00;99.90;;;;;;5033670;28;20465;-87
2021/05/23 08:06:21;;;;;;;0.87;0.70;;;11.80;99.90;;;;;;5040702;28;20431;-89
2021/05/23 08:08:47;;;;;;;1.10;0.70;;;11.70;99.90;;;;;;5033800;28;20481;-84
2021/05/23 08:11:13;;;;;;;2.63;0.97;;;11.60;99.90;;;;;;5026617;28;20456;-86
2021/05/23 08:13:39;;;;;;;1.70;0.93;;;11.60;99.90;;;;;;5020117;28;20431;-86
2021/05/23 08:16:08;;;;;;;1.87;1.10;;;11.50;99.90;;;;;;5019512;28;20474;-85
2021/05/23 08:18:35;;;;;;;1.50;0.80;;;11.50;99.90;;;;;;5018967;28;20435;-85
2021/05/23 08:21:03;;;;;;;1.57;0.83;;;11.60;99.90;;;;;;5010061;28;20526;-85
2021/05/23 08:23:31;;;;;;;0.80;0.50;;;12.20;99.90;;;;;;5011147;28;20451;-88
2021/05/23 08:25:58;;;;;;;1.70;0.90;;;13.30;99.90;;;;;;5011084;28;20446;-88
2021/05/23 08:28:25;;;;;;;3.00;1.43;;;15.40;99.90;;;;;;5017166;28;20443;-87
2021/05/23 08:30:51;;;;;;;1.70;1.10;;;17.80;94.60;;;;;;5013336;28;20522;-87
2021/05/23 08:33:18;;;;;;;1.43;0.87;;;19.50;87.80;;;;;;5011278;28;20544;-88
2021/05/23 08:35:45;;;;;;;1.77;0.73;;;21.10;80.80;;;;;;5013024;28;20486;-87
2021/05/23 08:38:11;;;;;;;1.70;0.70;;;22.30;77.10;;;;;;5025126;28;21085;-88
2021/05/23 08:40:38;;;;;;;2.90;0.83;;;23.70;70.50;;;;;;4999005;28;20505;-88
2021/05/23 08:43:08;;;;;;;3.67;1.57;;;24.20;63.10;;;;;;5000006;28;20448;-88
2021/05/23 08:45:34;;;;;;;2.07;1.33;;;25.10;62.20;;;;;;5002310;28;20438;-88
2021/05/23 08:48:00;;;;;;;2.73;0.70;;;26.10;58.50;;;;;;4999358;28;20458;-88
2021/05/23 08:53:39;;;;;;;2.13;0.70;;;25.60;55.60;;;;;;4972931;28;20445;-88
2021/05/23 08:56:25;;;;;;;1.40;0.70;;;23.80;56.80;;;;;;4999216;28;20480;-88
2021/05/23 08:58:54;;;;;;;1.63;1.00;;;22.20;60.60;;;;;;5000757;28;20475;-87
2021/05/23 09:01:25;;;;;;;2.30;0.90;;;20.40;65.30;;;;;;5008225;28;20499;-87
2021/05/23 09:03:57;;;;;;;2.30;0.90;;;19.20;69.50;;;;;;5003778;28;20441;-88
2021/05/23 09:06:27;;;;;;;2.03;0.80;;;18.40;72.90;;;;;;4996763;28;20457;-87
2021/05/23 09:08:57;;;;;;;1.47;0.83;;;17.90;75.80;;;;;;4994829;28;20450;-88
2021/05/23 09:11:24;;;;;;;3.57;1.10;;;18.70;77.10;;;;;;4994980;28;20476;-88
2021/05/23 09:13:52;;;;;;;2.90;0.80;;;18.80;73.60;;;;;;4998324;28;20910;-88
2021/05/23 09:16:20;;;;;;;3.23;0.87;;;18.50;73.70;;;;;;4993299;28;20456;-87
2021/05/23 09:18:48;;;;;;;1.90;0.83;;;18.00;75.50;;;;;;4993492;28;20450;-87
2021/05/23 09:21:17;;;;;;;1.70;0.97;;;17.60;76.20;;;;;;4995766;28;20468;-87
2021/05/23 09:23:47;;;;;;;1.90;1.10;;;17.20;76.00;;;;;;5009473;28;20442;-87
2021/05/23 09:26:22;;;;;;;1.57;0.87;;;16.80;76.40;;;;;;5003522;28;20932;-87
2021/05/23 09:28:49;;;;;;;3.60;0.97;;;16.60;78.40;;;;;;5013961;28;20411;-87
2021/05/23 09:31:18;;;;;;;3.00;1.10;;;16.40;78.10;;;;;;5010922;28;20475;-87
2021/05/23 09:33:47;;;;;;;1.40;0.80;;;16.50;78.40;;;;;;5010655;28;20450;-87
2021/05/23 09:36:14;;;;;;;1.90;1.43;;;16.50;80.00;;;;;;5000183;28;20475;-87
2021/05/23 09:38:50;;;;;;;5.30;1.30;;;16.60;78.70;;;;;;4997754;28;20445;-87
2021/05/23 09:41:22;;;;;;;2.53;1.00;;;16.40;78.30;;;;;;4994886;28;20499;-88
2021/05/23 09:43:49;;;;;;;2.40;1.23;;;16.20;78.80;;;;;;4994392;28;20443;-87
2021/05/23 09:46:15;;;;;;;2.37;1.10;;;16.10;79.00;;;;;;4993432;28;20983;-87
2021/05/23 09:48:49;;;;;;;4.80;1.07;;;16.10;79.50;;;;;;5014027;28;20511;-88
2021/05/23 09:51:17;;;;;;;1.80;1.00;;;15.90;79.90;;;;;;5001249;28;20978;-87
2021/05/23 09:53:45;;;;;;;3.00;1.30;;;15.70;83.70;;;;;;4995727;28;20510;-87
2021/05/23 09:56:13;;;;;;;2.00;0.70;;;15.40;86.50;;;;;;4992888;28;20485;-87
2021/05/23 09:58:42;;;;;;;1.50;0.70;;;14.60;85.30;;;;;;4994196;28;20458;-87
2021/05/23 10:01:10;;;;;;;1.20;0.70;;;13.70;88.70;;;;;;4994296;28;20532;-87
2021/05/23 10:03:39;;;;;;;0.87;0.60;;;13.10;91.10;;;;;;5003530;28;20450;-87
2021/05/23 10:06:07;;;;;;;1.10;0.60;;;12.80;93.30;;;;;;5003193;28;20643;-87
2021/05/23 10:08:33;;;;;;;4.03;1.00;;;13.00;94.70;;;;;;4999304;28;20470;-89
2021/05/23 10:11:00;;;;;;;3.53;0.90;;;13.50;95.30;;;;;;4993260;28;20463;-88
2021/05/23 10:13:28;;;;;;;1.20;0.90;;;14.30;96.70;;;;;;4992413;28;20478;-88
2021/05/23 10:15:56;;;;;;;2.13;0.90;;;15.10;96.00;;;;;;4992939;28;20479;-88
2021/05/23 10:18:26;;;;;;;4.50;1.13;;;16.20;94.10;;;;;;4993936;28;20489;-88
2021/05/23 10:20:56;;;;;;;1.93;0.90;;;19.90;88.00;;;;;;4994148;28;21019;-88
2021/05/23 10:23:27;;;;;;;4.70;0.90;;;22.10;73.00;;;;;;4993949;28;20544;-87
2021/05/23 10:25:57;;;;;;;1.53;1.07;;;24.30;66.10;;;;;;4992767;28;20488;-88
2021/05/23 10:28:24;;;;;;;1.83;0.90;;;26.60;58.20;;;;;;4993790;28;20873;-88
2021/05/23 10:30:52;;;;;;;2.40;0.80;;;26.80;51.30;;;;;;4999877;28;20467;-88
2021/05/23 10:33:21;;;;;;;2.60;0.70;;;27.10;50.00;;;;;;4996188;28;20582;-88
2021/05/23 10:35:50;;;;;;;5.30;1.10;;;28.60;51.70;;;;;;4995843;28;20564;-87
2021/05/23 10:38:20;;;;;;;1.73;0.70;;;28.60;46.50;;;;;;4992766;28;20916;-88
2021/05/23 10:40:55;;;;;;;2.00;0.87;;;29.10;47.40;;;;;;4991441;28;20464;-87
2021/05/23 10:43:25;;;;;;;1.80;0.80;;;27.40;47.00;;;;;;4994946;28;20462;-87
2021/05/23 10:46:09;;;;;;;2.13;0.90;;;25.70;49.90;;;;;;4998692;28;20516;-87
2021/05/23 10:48:38;;;;;;;2.73;1.10;;;24.50;51.50;;;;;;4995591;28;20479;-88
2021/05/23 10:51:12;;;;;;;1.70;0.90;;;23.10;54.30;;;;;;4993831;28;20491;-88
2021/05/23 10:53:39;;;;;;;2.07;1.00;;;22.10;55.40;;;;;;4993118;28;20837;-88
2021/05/23 10:56:05;;;;;;;1.93;0.90;;;21.20;57.60;;;;;;5018555;28;20490;-86
2021/05/23 10:58:32;;;;;;;4.23;0.97;;;20.60;59.90;;;;;;5017091;28;20453;-87
2021/05/23 11:01:00;;;;;;;1.40;1.03;;;20.00;61.50;;;;;;5005054;28;20501;-87
2021/05/23 11:03:28;;;;;;;3.60;1.50;;;19.50;63.10;;;;;;5021173;28;20448;-87
2021/05/23 11:06:03;;;;;;;2.60;1.20;;;19.10;64.30;;;;;;4998981;28;21004;-86
2021/05/23 11:08:30;;;;;;;2.60;1.13;;;18.70;64.30;;;;;;4996589;28;20466;-87
2021/05/23 11:10:57;;;;;;;3.73;1.43;;;18.50;65.40;;;;;;4999118;28;20518;-88
2021/05/23 11:13:31;;;;;;;2.40;1.30;;;18.40;68.00;;;;;;5003942;28;20463;-88
2021/05/23 11:16:10;;;;;;;3.60;2.43;;;18.20;69.10;;;;;;5011961;28;20798;-88
2021/05/23 11:18:36;;;;;;;6.70;4.40;;;17.90;69.50;;;;;;4998037;28;20443;-88
2021/05/23 11:21:05;;;;;;;3.17;1.77;;;17.60;73.30;;;;;;4999607;28;20459;-87
2021/05/23 11:23:33;;;;;;;2.43;1.07;;;17.20;74.00;;;;;;4998640;28;20446;-87
2021/05/23 11:26:04;;;;;;;1.83;1.00;;;16.90;76.90;;;;;;4999682;28;20428;-88
2021/05/23 11:28:30;;;;;;;3.70;1.70;;;16.70;79.00;;;;;;5005163;28;20451;-88
2021/05/23 11:30:56;;;;;;;4.80;3.70;;;16.70;82.10;;;;;;5004145;28;20443;-88
2021/05/23 11:33:23;;;;;;;5.00;3.00;;;16.60;83.10;;;;;;5002266;28;20451;-87
2021/05/23 11:35:52;;;;;;;5.80;3.10;;;16.60;81.70;;;;;;5002791;28;20479;-88
2021/05/23 11:38:21;;;;;;;3.50;2.03;;;16.70;82.10;;;;;;5004139;28;20510;-87
2021/05/23 11:40:48;;;;;;;3.53;1.83;;;16.90;80.70;;;;;;5010021;28;20463;-87
2021/05/23 11:43:19;;;;;;;3.20;1.50;;;16.90;79.10;;;;;;5013414;28;20474;-88
2021/05/23 11:45:59;;;;;;;6.10;3.47;;;17.50;79.40;;;;;;5015730;28;20439;-88
2021/05/23 11:48:38;;;;;;;4.60;3.00;;;18.90;76.50;;;;;;5014485;28;20462;-87
2021/05/23 11:51:05;;;;;;;4.80;4.10;;;19.90;65.20;;;;;;5014000;28;20503;-87
2021/05/23 11:53:41;;;;;;;5.57;3.90;;;20.90;65.60;;;;;;5015940;28;20448;-87
2021/05/23 11:56:08;;;;;;;6.63;3.70;;;22.30;62.50;;;;;;5012320;28;20550;-87
2021/05/23 11:58:35;;;;;;;2.60;1.70;;;23.20;59.20;;;;;;5014061;28;20658;-89
2021/05/23 12:01:13;;;;;;;2.00;0.87;;;23.00;58.10;;;;;;5002720;28;20481;-89
2021/05/23 12:03:42;;;;;;;1.50;1.20;;;21.90;54.80;;;;;;5005426;28;20912;-88
2021/05/23 12:09:29;;;;;;;1.73;0.70;;;23.60;54.80;;;;;;4962476;29;20544;-88
2021/05/23 12:12:32;;;;;;;1.40;1.10;;;26.80;48.30;;;;;;5002817;28;20893;-87
2021/05/23 12:15:17;;;;;;;1.63;0.90;;;28.80;45.10;;;;;;4982654;28;20482;-87
2021/05/23 12:17:57;;;;;;;1.30;0.77;;;30.80;40.40;;;;;;4998342;28;20443;-88
2021/05/23 12:20:30;;;;;;;2.57;1.30;;;30.60;38.60;;;;;;4998365;28;20478;-88
2021/05/23 12:23:04;;;;;;;5.53;4.10;;;30.60;39.60;;;;;;4996377;28;20437;-88
2021/05/23 12:25:37;;;;;;;4.13;2.30;;;29.50;38.50;;;;;;4998018;28;20473;-88
2021/05/23 12:28:14;;;;;;;2.80;1.43;;;26.60;41.50;;;;;;4996848;28;20464;-87
2021/05/23 12:30:40;;;;;;;1.47;0.93;;;25.00;44.60;;;;;;4995251;28;20475;-88
2021/05/23 12:33:28;;;;;;;;;;;;;;;;;;;;;
2021/05/23 12:36:17;;;;;;;1.67;0.93;;;24.40;46.20;;;;;;4998653;28;20485;-87
2021/05/23 12:39:16;;;;;;;1.37;0.97;;;26.10;43.10;;;;;;5004849;28;20446;-87
2021/05/23 12:42:09;;;;;;;2.67;1.67;;;24.50;44.50;;;;;;4999806;28;21069;-88
2021/05/23 12:47:49;;;;;;;2.40;1.67;;;24.00;46.70;;;;;;4994857;28;20436;-88
2021/05/23 12:50:37;;;;;;;2.20;1.50;;;23.10;47.70;;;;;;4998289;28;20479;-88
2021/05/23 12:53:09;;;;;;;6.07;2.17;;;22.40;48.90;;;;;;4997536;28;20438;-87
2021/05/23 12:55:40;;;;;;;1.60;1.20;;;21.30;49.20;;;;;;4998028;28;20470;-87
2021/05/23 12:58:08;;;;;;;1.00;0.70;;;20.20;52.70;;;;;;4997364;28;20432;-87
2021/05/23 13:00:39;;;;;;;2.47;0.90;;;19.00;54.10;;;;;;4991806;28;20476;-88
2021/05/23 13:03:09;;;;;;;2.13;0.87;;;18.40;55.30;;;;;;4996275;28;20451;-87
2021/05/23 13:05:36;;;;;;;1.40;0.70;;;18.20;57.30;;;;;;4995996;28;20454;-87